createdAt,value
2018-12-12T00:00:34.629Z,101860.46
2018-12-12T00:03:02.967Z,101866.49
2018-12-12T00:05:31.299Z,101871.48
2018-12-12T00:07:59.641Z,101872.75
2018-12-12T00:10:27.975Z,101877.30
2018-12-12T00:12:56.302Z,101877.69
2018-12-12T00:15:24.637Z,101881.23
2018-12-12T00:17:52.975Z,101883.38
2018-12-12T00:20:21.305Z,101888.70
2018-12-12T00:22:49.640Z,101891.22
2018-12-12T00:25:17.970Z,101895.72
2018-12-12T00:27:46.297Z,101895.52
2018-12-12T00:30:14.669Z,101901.23
2018-12-12T00:32:43.333Z,101906.56
2018-12-12T00:35:11.659Z,101911.09
2018-12-12T00:37:39.997Z,101914.58
2018-12-12T00:40:08.579Z,101919.53
2018-12-12T00:42:36.904Z,101919.49
2018-12-12T00:45:05.238Z,101927.84
2018-12-12T00:47:33.565Z,101924.20
2018-12-12T00:50:01.906Z,101927.16
2018-12-12T00:52:30.236Z,101929.66
2018-12-12T00:54:58.588Z,101936.86
2018-12-12T00:57:26.922Z,101939.09
2018-12-12T00:59:55.261Z,101938.56
2018-12-12T01:02:23.606Z,101938.08
2018-12-12T01:04:51.924Z,101939.14
2018-12-12T01:07:20.260Z,101943.20
2018-12-12T01:09:48.584Z,101946.23
2018-12-12T01:12:16.929Z,101952.30
2018-12-12T01:14:45.261Z,101947.84
2018-12-12T01:17:13.600Z,101950.80
2018-12-12T01:19:41.940Z,101954.42
2018-12-12T01:22:10.275Z,101953.95
2018-12-12T01:24:38.626Z,101950.55
2018-12-12T01:27:06.957Z,101953.42
2018-12-12T01:29:35.284Z,101953.89
2018-12-12T01:32:03.612Z,101958.43
2018-12-12T01:34:31.937Z,101954.31
2018-12-12T01:37:00.265Z,101956.78
2018-12-12T01:39:28.580Z,101961.66
2018-12-12T01:41:56.900Z,101961.00
2018-12-12T01:44:25.229Z,101970.64
2018-12-12T01:46:53.567Z,101972.12
2018-12-12T01:49:21.889Z,101975.19
2018-12-12T01:51:50.222Z,101972.97
2018-12-12T01:54:18.550Z,101983.64
2018-12-12T01:56:46.873Z,101987.18
2018-12-12T01:59:15.193Z,101983.20
2018-12-12T02:01:43.517Z,101982.25
2018-12-12T02:04:11.853Z,101985.61
2018-12-12T02:06:40.177Z,101981.18
2018-12-12T02:09:08.499Z,101978.31
2018-12-12T02:11:36.829Z,101980.66
2018-12-12T02:14:05.147Z,101984.67
2018-12-12T02:16:33.478Z,101981.66
2018-12-12T02:19:01.811Z,101980.19
2018-12-12T02:21:30.155Z,101984.10
2018-12-12T02:23:58.478Z,101978.87
2018-12-12T02:26:26.811Z,101982.19
2018-12-12T02:28:55.135Z,101979.11
2018-12-12T02:31:23.460Z,101976.11
2018-12-12T02:33:51.785Z,101978.84
2018-12-12T02:36:20.110Z,101981.97
2018-12-12T02:38:48.437Z,101980.52
2018-12-12T02:41:16.753Z,101989.50
2018-12-12T02:43:45.082Z,101994.16
2018-12-12T02:46:13.413Z,101992.60
2018-12-12T02:48:41.748Z,101989.23
2018-12-12T02:51:10.101Z,101993.38
2018-12-12T02:53:38.433Z,101995.80
2018-12-12T02:56:06.772Z,101994.36
2018-12-12T02:58:35.101Z,102003.44
2018-12-12T03:01:03.468Z,102000.35
2018-12-12T03:03:31.787Z,102002.39
2018-12-12T03:06:00.114Z,102012.00
2018-12-12T03:08:28.452Z,102010.14
2018-12-12T03:10:56.784Z,102011.48
2018-12-12T03:13:25.101Z,102015.77
2018-12-12T03:15:53.441Z,102015.98
2018-12-12T03:18:21.781Z,102018.73
2018-12-12T03:20:50.126Z,102026.15
2018-12-12T03:23:18.462Z,102028.20
2018-12-12T03:25:46.799Z,102029.11
2018-12-12T03:28:15.127Z,102026.34
2018-12-12T03:30:43.463Z,102030.61
2018-12-12T03:33:11.804Z,102034.56
2018-12-12T03:35:40.124Z,102035.47
2018-12-12T03:38:08.454Z,102039.08
2018-12-12T03:40:37.040Z,102044.64
2018-12-12T03:43:05.377Z,102038.27
2018-12-12T03:45:33.713Z,102039.34
2018-12-12T03:48:02.038Z,102046.78
2018-12-12T03:50:30.366Z,102049.14
2018-12-12T03:52:58.984Z,102048.16
2018-12-12T03:55:27.314Z,102052.22
2018-12-12T03:57:55.640Z,102049.92
2018-12-12T04:00:23.977Z,102051.35
2018-12-12T04:02:52.625Z,102048.67
2018-12-12T04:05:20.955Z,102045.22
2018-12-12T04:07:49.285Z,102055.92
2018-12-12T04:10:17.617Z,102054.81
2018-12-12T04:12:45.960Z,102055.38
2018-12-12T04:15:14.291Z,102060.84
2018-12-12T04:17:42.616Z,102057.94
2018-12-12T04:20:10.966Z,102061.11
2018-12-12T04:22:39.304Z,102057.68
2018-12-12T04:25:07.638Z,102055.03
2018-12-12T04:27:36.932Z,102056.20
2018-12-12T04:30:05.253Z,102053.95
2018-12-12T04:32:33.583Z,102055.67
2018-12-12T04:35:01.910Z,102059.83
2018-12-12T04:37:30.242Z,102061.58
2018-12-12T04:39:58.570Z,102063.07
2018-12-12T04:42:26.890Z,102065.91
2018-12-12T04:44:55.229Z,102068.16
2018-12-12T04:47:23.555Z,102071.26
2018-12-12T04:49:51.921Z,102070.13
2018-12-12T04:52:20.217Z,102076.30
2018-12-12T04:54:48.561Z,102079.53
2018-12-12T04:57:16.890Z,102081.14
2018-12-12T04:59:45.231Z,102082.94
2018-12-12T05:02:13.552Z,102086.93
2018-12-12T05:04:41.891Z,102095.17
2018-12-12T05:07:10.223Z,102097.95
2018-12-12T05:09:38.561Z,102100.24
2018-12-12T05:12:06.894Z,102096.62
2018-12-12T05:14:35.269Z,102100.69
2018-12-12T05:17:03.580Z,102108.88
2018-12-12T05:19:31.921Z,102110.12
2018-12-12T05:22:00.256Z,102117.89
2018-12-12T05:24:28.586Z,102120.71
2018-12-12T05:26:56.920Z,102123.05
2018-12-12T05:29:25.260Z,102121.77
2018-12-12T05:31:53.589Z,102123.86
2018-12-12T05:34:21.918Z,102122.66
2018-12-12T05:36:50.253Z,102125.41
2018-12-12T05:39:18.576Z,102121.61
2018-12-12T05:41:46.907Z,102134.98
2018-12-12T05:44:15.241Z,102140.59
2018-12-12T05:46:43.579Z,102155.81
2018-12-12T05:49:11.905Z,102160.58
2018-12-12T05:51:40.545Z,102169.72
2018-12-12T05:54:08.887Z,102170.84
2018-12-12T05:56:37.216Z,102169.13
2018-12-12T05:59:05.561Z,102170.22
2018-12-12T06:01:33.942Z,102165.75
2018-12-12T06:04:02.250Z,102163.23
2018-12-12T06:06:30.618Z,102161.24
2018-12-12T06:08:58.935Z,102161.58
2018-12-12T06:11:27.266Z,102166.78
2018-12-12T06:13:55.598Z,102167.30
2018-12-12T06:16:23.927Z,102176.27
2018-12-12T06:18:52.258Z,102180.06
2018-12-12T06:21:20.583Z,102177.98
2018-12-12T06:23:49.200Z,102175.33
2018-12-12T06:26:17.553Z,102181.63
2018-12-12T06:28:45.891Z,102185.90
2018-12-12T06:31:14.229Z,102190.81
2018-12-12T06:33:42.579Z,102192.53
2018-12-12T06:36:10.919Z,102189.49
2018-12-12T06:38:39.570Z,102197.08
2018-12-12T06:41:07.906Z,102190.17
2018-12-12T06:43:36.344Z,102201.05
2018-12-12T06:46:04.674Z,102207.91
2018-12-12T06:48:33.012Z,102211.56
2018-12-12T06:51:01.332Z,102213.25
2018-12-12T06:53:29.673Z,102214.98
2018-12-12T06:55:57.999Z,102213.72
2018-12-12T06:58:26.335Z,102216.01
2018-12-12T07:00:54.665Z,102221.59
2018-12-12T07:03:23.000Z,102219.69
2018-12-12T07:05:51.334Z,102222.03
2018-12-12T07:08:20.039Z,102222.63
2018-12-12T07:10:48.727Z,102222.08
2018-12-12T07:13:17.063Z,102229.19
2018-12-12T07:15:45.418Z,102231.45
2018-12-12T07:18:13.759Z,102232.22
2018-12-12T07:20:42.081Z,102239.33
2018-12-12T07:23:10.421Z,102240.90
2018-12-12T07:25:38.780Z,102240.72
2018-12-12T07:28:07.122Z,102248.92
2018-12-12T07:30:35.774Z,102250.06
2018-12-12T07:33:04.099Z,102253.13
2018-12-12T07:35:32.432Z,102259.20
2018-12-12T07:38:00.767Z,102259.09
2018-12-12T07:40:29.099Z,102261.88
2018-12-12T07:42:57.436Z,102259.91
2018-12-12T07:45:25.781Z,102258.09
2018-12-12T07:47:54.103Z,102261.14
2018-12-12T07:50:22.434Z,102261.98
2018-12-12T07:52:50.758Z,102267.33
2018-12-12T07:55:19.095Z,102271.19
2018-12-12T07:57:47.753Z,102271.85
2018-12-12T08:00:16.084Z,102271.03
2018-12-12T08:02:44.440Z,102271.11
2018-12-12T08:05:12.774Z,102270.94
2018-12-12T08:07:41.112Z,102276.05
2018-12-12T08:10:09.499Z,102272.33
2018-12-12T08:12:37.812Z,102274.55
2018-12-12T08:15:06.135Z,102280.06
2018-12-12T08:17:34.483Z,102280.86
2018-12-12T08:20:02.820Z,102281.07
2018-12-12T08:22:31.150Z,102281.02
2018-12-12T08:24:59.486Z,102277.34
2018-12-12T08:27:27.851Z,102278.23
2018-12-12T08:29:56.172Z,102280.73
2018-12-12T08:32:24.500Z,102281.98
2018-12-12T08:34:52.823Z,102287.08
2018-12-12T08:37:21.150Z,102291.05
2018-12-12T08:39:49.485Z,102292.06
2018-12-12T08:42:17.845Z,102295.02
2018-12-12T08:44:46.170Z,102300.10
2018-12-12T08:47:14.858Z,102303.09
2018-12-12T08:49:43.221Z,102312.70
2018-12-12T08:52:11.550Z,102320.75
2018-12-12T08:54:39.888Z,102319.92
2018-12-12T08:57:25.378Z,102322.33
2018-12-12T08:59:50.954Z,102325.17
2018-12-12T09:02:19.760Z,102321.87
2018-12-12T09:04:48.076Z,102324.66
2018-12-12T09:07:16.173Z,102325.92
2018-12-12T09:09:44.495Z,102325.17
2018-12-12T09:12:12.815Z,102330.46
2018-12-12T09:14:41.226Z,102319.77
2018-12-12T09:17:10.013Z,102320.94
2018-12-12T09:19:37.979Z,102328.36
2018-12-12T09:22:06.309Z,102328.06
2018-12-12T09:24:34.656Z,102327.30
2018-12-12T09:27:02.968Z,102325.41
2018-12-12T09:29:31.295Z,102327.05
2018-12-12T09:31:59.622Z,102330.49
2018-12-12T09:34:27.935Z,102333.98
2018-12-12T09:36:56.261Z,102333.81
2018-12-12T09:39:24.583Z,102334.21
2018-12-12T09:41:52.896Z,102328.61
2018-12-12T09:44:21.227Z,102331.50
2018-12-12T09:46:49.561Z,102335.33
2018-12-12T09:49:17.896Z,102333.51
2018-12-12T09:51:46.212Z,102329.15
2018-12-12T09:54:14.529Z,102326.87
2018-12-12T09:56:42.849Z,102325.34
2018-12-12T09:59:11.172Z,102327.08
2018-12-12T10:01:39.502Z,102327.08
2018-12-12T10:04:07.805Z,102324.09
2018-12-12T10:06:36.122Z,102322.08
2018-12-12T10:09:04.448Z,102326.29
2018-12-12T10:11:32.791Z,102325.88
2018-12-12T10:14:01.131Z,102327.75
2018-12-12T10:16:29.469Z,102332.47
2018-12-12T10:18:57.794Z,102329.81
2018-12-12T10:21:26.135Z,102329.92
2018-12-12T10:23:54.480Z,102331.92
2018-12-12T10:26:22.809Z,102327.23
2018-12-12T10:28:51.157Z,102330.92
2018-12-12T10:31:19.487Z,102329.61
2018-12-12T10:33:47.833Z,102327.55
2018-12-12T10:36:16.172Z,102330.24
2018-12-12T10:38:44.519Z,102329.62
2018-12-12T10:41:12.847Z,102332.18
2018-12-12T10:43:41.763Z,102327.57
2018-12-12T10:46:10.098Z,102329.02
2018-12-12T10:48:38.438Z,102333.14
2018-12-12T10:51:06.759Z,102330.61
2018-12-12T10:53:35.105Z,102333.77
2018-12-12T10:56:15.901Z,102328.83
2018-12-12T10:58:44.799Z,102324.38
2018-12-12T11:01:18.689Z,102328.66
2018-12-12T11:03:47.026Z,102329.02
2018-12-12T11:06:15.348Z,102328.30
2018-12-12T11:08:43.684Z,102328.08
2018-12-12T11:11:12.021Z,102331.61
2018-12-12T11:13:40.345Z,102332.67
2018-12-12T11:16:08.713Z,102333.44
2018-12-12T11:18:37.033Z,102330.13
2018-12-12T11:21:05.353Z,102332.55
2018-12-12T11:23:33.691Z,102332.64
2018-12-12T11:26:02.049Z,102331.82
2018-12-12T11:28:30.375Z,102334.45
2018-12-12T11:30:58.709Z,102336.28
2018-12-12T11:33:27.040Z,102339.02
2018-12-12T11:35:55.374Z,102338.75
2018-12-12T11:38:23.702Z,102341.39
2018-12-12T11:40:52.041Z,102334.87
2018-12-12T11:43:20.377Z,102333.07
2018-12-12T11:45:48.721Z,102337.42
2018-12-12T11:48:17.056Z,102340.12
2018-12-12T11:50:45.383Z,102343.54
2018-12-12T11:53:13.713Z,102345.68
2018-12-12T11:55:42.053Z,102349.52
2018-12-12T11:58:10.392Z,102352.55
2018-12-12T12:00:38.717Z,102356.08
2018-12-12T12:03:07.043Z,102351.77
2018-12-12T12:05:35.387Z,102353.45
2018-12-12T12:08:03.716Z,102355.37
2018-12-12T12:10:32.060Z,102356.34
2018-12-12T12:13:00.388Z,102357.98
2018-12-12T12:15:28.731Z,102363.61
2018-12-12T12:17:57.064Z,102365.80
2018-12-12T12:20:25.388Z,102367.41
2018-12-12T12:22:53.723Z,102367.80
2018-12-12T12:25:22.081Z,102367.14
2018-12-12T12:27:50.418Z,102365.09
2018-12-12T12:30:18.746Z,102365.59
2018-12-12T12:32:47.068Z,102367.66
2018-12-12T12:35:15.377Z,102374.70
2018-12-12T12:37:43.709Z,102376.11
2018-12-12T12:40:12.036Z,102375.22
2018-12-12T12:42:40.347Z,102370.18
2018-12-12T12:45:08.671Z,102370.59
2018-12-12T12:47:36.986Z,102367.08
2018-12-12T12:50:05.783Z,102363.92
2018-12-12T12:52:34.098Z,102362.08
2018-12-12T12:55:03.327Z,102359.83
2018-12-12T12:57:32.427Z,102360.88
2018-12-12T13:00:00.744Z,102363.72
2018-12-12T13:02:29.055Z,102368.82
2018-12-12T13:04:57.381Z,102369.69
2018-12-12T13:07:25.691Z,102371.02
2018-12-12T13:09:54.011Z,102371.80
2018-12-12T13:12:22.328Z,102370.06
2018-12-12T13:14:50.639Z,102374.11
2018-12-12T13:17:18.966Z,102372.70
2018-12-12T13:19:47.304Z,102376.18
2018-12-12T13:22:15.647Z,102378.58
2018-12-12T13:24:43.961Z,102377.67
2018-12-12T13:27:12.288Z,102382.52
2018-12-12T13:29:40.836Z,102385.31
2018-12-12T13:32:08.948Z,102383.63
2018-12-12T13:34:37.273Z,102385.05
2018-12-12T13:37:05.608Z,102382.67
2018-12-12T13:39:33.923Z,102383.42
2018-12-12T13:42:02.245Z,102385.98
2018-12-12T13:44:30.576Z,102387.73
2018-12-12T13:46:58.906Z,102391.17
2018-12-12T13:49:27.234Z,102385.77
2018-12-12T13:51:55.565Z,102386.61
2018-12-12T13:54:23.881Z,102391.55
2018-12-12T13:56:52.217Z,102395.12
2018-12-12T13:59:20.557Z,102404.95
2018-12-12T14:01:49.450Z,102409.27
2018-12-12T14:04:22.574Z,102408.43
2018-12-12T14:06:46.116Z,102410.43
2018-12-12T14:09:15.168Z,102412.18
2018-12-12T14:11:43.513Z,102415.27
2018-12-12T14:14:12.075Z,102421.83
2018-12-12T14:16:40.170Z,102426.89
2018-12-12T14:19:08.499Z,102431.00
2018-12-12T14:21:36.846Z,102432.98
2018-12-12T14:24:05.181Z,102435.66
2018-12-12T14:26:33.720Z,102436.28
2018-12-12T14:29:02.052Z,102434.91
2018-12-12T14:31:30.380Z,102436.44
2018-12-12T14:33:58.717Z,102432.13
2018-12-12T14:36:27.054Z,102433.70
2018-12-12T14:38:55.370Z,102434.45
2018-12-12T14:41:23.711Z,102433.66
2018-12-12T14:43:52.047Z,102432.36
2018-12-12T14:46:20.410Z,102436.18
2018-12-12T14:48:48.737Z,102434.98
2018-12-12T14:51:17.062Z,102437.49
2018-12-12T14:53:45.402Z,102435.20
2018-12-12T14:56:13.777Z,102438.88
2018-12-12T14:58:42.121Z,102440.28
2018-12-12T15:01:10.478Z,102438.05
2018-12-12T15:03:38.824Z,102439.14
2018-12-12T15:06:07.144Z,102438.12
2018-12-12T15:08:35.492Z,102442.51
2018-12-12T15:11:03.830Z,102445.70
2018-12-12T15:13:32.175Z,102451.84
2018-12-12T15:16:00.804Z,102449.89
2018-12-12T15:18:29.154Z,102449.38
2018-12-12T15:20:57.486Z,102449.29
2018-12-12T15:23:25.869Z,102452.06
2018-12-12T15:25:54.210Z,102457.80
2018-12-12T15:28:22.566Z,102460.37
2018-12-12T15:30:50.909Z,102462.80
2018-12-12T15:33:19.248Z,102460.52
2018-12-12T15:35:47.597Z,102465.53
2018-12-12T15:38:15.998Z,102465.48
2018-12-12T15:40:44.640Z,102461.47
2018-12-12T15:43:13.577Z,102464.89
2018-12-12T15:45:42.000Z,102465.68
2018-12-12T15:48:10.693Z,102468.14
2018-12-12T15:50:39.032Z,102472.14
2018-12-12T15:53:07.472Z,102469.22
2018-12-12T15:55:35.801Z,102467.06
2018-12-12T15:58:04.140Z,102473.21
2018-12-12T16:00:32.473Z,102469.16
2018-12-12T16:03:00.841Z,102474.00
2018-12-12T16:05:29.160Z,102471.58
2018-12-12T16:07:57.550Z,102475.20
2018-12-12T16:10:25.905Z,102473.73
2018-12-12T16:12:54.218Z,102470.87
2018-12-12T16:15:22.562Z,102472.25
2018-12-12T16:17:50.888Z,102470.98
2018-12-12T16:20:19.458Z,102471.77
2018-12-12T16:22:47.583Z,102478.87
2018-12-12T16:25:15.932Z,102479.02
2018-12-12T16:27:44.288Z,102484.97
2018-12-12T16:30:12.691Z,102487.95
2018-12-12T16:32:41.012Z,102494.33
2018-12-12T16:35:09.327Z,102486.95
2018-12-12T16:37:37.659Z,102492.83
2018-12-12T16:40:05.983Z,102500.19
2018-12-12T16:42:34.300Z,102502.16
2018-12-12T16:45:02.627Z,102504.64
2018-12-12T16:47:30.954Z,102504.75
2018-12-12T16:49:59.313Z,102497.38
2018-12-12T16:52:27.634Z,102491.06
2018-12-12T16:54:55.960Z,102496.14
2018-12-12T16:57:24.287Z,102492.95
2018-12-12T16:59:52.641Z,102490.14
2018-12-12T17:02:20.969Z,102486.55
2018-12-12T17:04:49.299Z,102481.20
2018-12-12T17:07:17.639Z,102478.12
2018-12-12T17:09:45.991Z,102479.16
2018-12-12T17:12:14.406Z,102489.19
2018-12-12T17:14:42.676Z,102492.64
2018-12-12T17:17:11.057Z,102498.50
2018-12-12T17:19:39.382Z,102498.08
2018-12-12T17:22:08.672Z,102500.29
2018-12-12T17:24:36.989Z,102496.27
2018-12-12T17:27:05.346Z,102488.57
2018-12-12T17:29:33.826Z,102488.09
2018-12-12T17:32:02.125Z,102489.44
2018-12-12T17:34:30.483Z,102486.35
2018-12-12T17:36:58.819Z,102488.30
2018-12-12T17:39:27.154Z,102489.55
2018-12-12T17:41:55.483Z,102489.14
2018-12-12T17:44:23.825Z,102490.66
2018-12-12T17:46:52.164Z,102494.41
2018-12-12T17:49:20.506Z,102495.83
2018-12-12T17:51:48.933Z,102498.68
2018-12-12T17:54:17.301Z,102494.08
2018-12-12T17:56:45.643Z,102496.77
2018-12-12T17:59:13.978Z,102504.06
2018-12-12T18:01:42.304Z,102506.23
2018-12-12T18:04:10.650Z,102502.59
2018-12-12T18:06:38.997Z,102505.88
2018-12-12T18:09:07.385Z,102504.98
2018-12-12T18:11:35.762Z,102506.05
2018-12-12T18:14:04.103Z,102508.78
2018-12-12T18:16:32.436Z,102512.53
2018-12-12T18:19:00.802Z,102516.53
2018-12-12T18:21:29.194Z,102516.56
2018-12-12T18:23:57.517Z,102520.47
2018-12-12T18:26:26.115Z,102521.47
2018-12-12T18:28:54.569Z,102525.56
2018-12-12T18:31:22.879Z,102521.74
2018-12-12T18:33:51.217Z,102521.22
2018-12-12T18:36:19.653Z,102519.55
2018-12-12T18:38:47.993Z,102524.62
2018-12-12T18:41:16.329Z,102524.73
2018-12-12T18:43:44.670Z,102523.02
2018-12-12T18:46:13.018Z,102526.86
2018-12-12T18:48:41.371Z,102529.94
2018-12-12T18:51:09.669Z,102533.41
2018-12-12T18:53:38.260Z,102533.71
2018-12-12T18:56:06.598Z,102529.50
2018-12-12T18:58:42.606Z,102536.32
2018-12-12T19:01:11.418Z,102543.48
2018-12-12T19:03:39.759Z,102544.64
2018-12-12T19:06:08.085Z,102547.30
2018-12-12T19:08:36.434Z,102543.14
2018-12-12T19:11:05.099Z,102549.05
2018-12-12T19:13:33.417Z,102548.70
2018-12-12T19:16:01.792Z,102546.96
2018-12-12T19:18:30.124Z,102545.68
2018-12-12T19:21:00.168Z,102542.94
2018-12-12T19:23:26.782Z,102543.68
2018-12-12T19:25:55.127Z,102539.20
2018-12-12T19:28:23.470Z,102530.30
2018-12-12T19:30:51.841Z,102529.84
2018-12-12T19:33:20.542Z,102524.61
2018-12-12T19:35:48.880Z,102527.38
2018-12-12T19:38:17.199Z,102533.84
2018-12-12T19:40:45.597Z,102535.63
2018-12-12T19:43:14.095Z,102533.30
2018-12-12T19:45:42.421Z,102536.94
2018-12-12T19:48:10.759Z,102539.73
2018-12-12T19:50:39.097Z,102542.49
2018-12-12T19:53:07.439Z,102544.91
2018-12-12T19:55:36.030Z,102545.09
2018-12-12T19:58:05.054Z,102544.78
2018-12-12T20:00:33.404Z,102544.98
2018-12-12T20:03:02.082Z,102548.64
2018-12-12T20:05:30.784Z,102555.89
2018-12-12T20:07:59.289Z,102550.62
2018-12-12T20:10:27.689Z,102553.73
2018-12-12T20:12:56.245Z,102550.67
2018-12-12T20:15:30.586Z,102550.12
2018-12-12T20:17:58.927Z,102550.66
2018-12-12T20:20:27.256Z,102549.60
2018-12-12T20:22:55.596Z,102549.22
2018-12-12T20:25:23.939Z,102549.00
2018-12-12T20:27:52.274Z,102551.46
2018-12-12T20:30:20.609Z,102544.29
2018-12-12T20:32:48.991Z,102547.03
2018-12-12T20:35:17.322Z,102543.48
2018-12-12T20:37:45.659Z,102546.00
2018-12-12T20:40:13.989Z,102545.81
2018-12-12T20:42:42.327Z,102548.20
2018-12-12T20:45:10.659Z,102547.42
2018-12-12T20:47:39.118Z,102549.25
2018-12-12T20:50:07.461Z,102549.52
2018-12-12T20:52:35.806Z,102558.73
2018-12-12T20:55:04.156Z,102557.82
2018-12-12T20:57:32.671Z,102565.16
2018-12-12T21:00:01.357Z,102563.53
2018-12-12T21:02:29.392Z,102560.88
2018-12-12T21:04:58.871Z,102561.96
2018-12-12T21:07:27.198Z,102560.62
2018-12-12T21:09:55.841Z,102563.30
2018-12-12T21:12:25.489Z,102558.86
2018-12-12T21:14:53.575Z,102558.84
2018-12-12T21:17:22.130Z,102557.46
2018-12-12T21:22:49.101Z,102558.94
2018-12-12T21:25:20.806Z,102563.06
2018-12-12T21:27:49.134Z,102561.39
2018-12-12T21:30:17.522Z,102557.94
2018-12-12T21:32:45.832Z,102562.73
2018-12-12T21:35:14.156Z,102563.15
2018-12-12T21:37:42.474Z,102566.16
2018-12-12T21:40:10.804Z,102565.37
2018-12-12T21:42:39.170Z,102566.58
2018-12-12T21:45:07.494Z,102563.86
2018-12-12T21:47:35.801Z,102564.30
2018-12-12T21:50:04.137Z,102563.40
2018-12-12T21:52:32.485Z,102560.67
2018-12-12T21:55:00.825Z,102564.39
2018-12-12T21:57:29.138Z,102563.90
2018-12-12T21:59:57.460Z,102563.39
2018-12-12T22:02:25.784Z,102566.30
2018-12-12T22:04:54.114Z,102564.77
2018-12-12T22:07:22.465Z,102558.02
2018-12-12T22:09:50.788Z,102559.19
2018-12-12T22:12:19.164Z,102558.80
2018-12-12T22:14:47.488Z,102562.64
2018-12-12T22:17:15.827Z,102564.73
2018-12-12T22:19:44.138Z,102564.55
2018-12-12T22:22:12.459Z,102570.92
2018-12-12T22:24:40.788Z,102570.97
2018-12-12T22:27:09.107Z,102573.19
2018-12-12T22:29:37.414Z,102574.05
2018-12-12T22:32:05.730Z,102575.37
2018-12-12T22:34:34.070Z,102578.64
2018-12-12T22:37:02.392Z,102576.92
2018-12-12T22:39:30.718Z,102576.98
2018-12-12T22:41:59.035Z,102579.44
2018-12-12T22:44:27.363Z,102584.32
2018-12-12T22:46:55.681Z,102585.16
2018-12-12T22:49:24.002Z,102585.63
2018-12-12T22:51:52.317Z,102587.24
2018-12-12T22:54:20.628Z,102590.39
2018-12-12T22:56:48.964Z,102589.02
2018-12-12T22:59:17.287Z,102592.39
2018-12-12T23:01:45.604Z,102593.14
2018-12-12T23:04:13.921Z,102592.92
2018-12-12T23:06:42.245Z,102596.81
2018-12-12T23:09:10.566Z,102597.52
2018-12-12T23:11:38.881Z,102600.04
2018-12-12T23:14:07.218Z,102596.59
2018-12-12T23:16:35.543Z,102597.88
2018-12-12T23:19:03.857Z,102600.84
2018-12-12T23:21:32.180Z,102602.33
2018-12-12T23:24:00.495Z,102602.61
2018-12-12T23:26:28.823Z,102601.73
2018-12-12T23:28:57.143Z,102604.88
2018-12-12T23:31:25.458Z,102604.47
2018-12-12T23:33:54.427Z,102601.06
2018-12-12T23:36:26.944Z,102599.54
2018-12-12T23:38:51.311Z,102603.19
2018-12-12T23:41:19.631Z,102599.06
2018-12-12T23:43:47.969Z,102604.94
2018-12-12T23:46:16.313Z,102605.42
2018-12-12T23:48:44.608Z,102602.75
2018-12-12T23:51:12.925Z,102602.48
2018-12-12T23:53:42.207Z,102603.05
2018-12-12T23:56:10.829Z,102600.21
2018-12-12T23:58:39.149Z,102600.94
